sensor_id;sensor_type;location;lat;lon;timestamp;temperature;humidity
36292;DHT22;22327;51.208;6.418;2022-11-14T00:00:23;8.50;94.10
36292;DHT22;22327;51.208;6.418;2022-11-14T00:02:49;8.40;94.70
36292;DHT22;22327;51.208;6.418;2022-11-14T00:05:14;8.30;94.30
36292;DHT22;22327;51.208;6.418;2022-11-14T00:07:40;8.30;94.20
36292;DHT22;22327;51.208;6.418;2022-11-14T00:10:06;8.20;94.50
36292;DHT22;22327;51.208;6.418;2022-11-14T00:12:31;8.20;94.70
36292;DHT22;22327;51.208;6.418;2022-11-14T00:14:57;8.20;94.50
36292;DHT22;22327;51.208;6.418;2022-11-14T00:17:22;8.20;94.40
36292;DHT22;22327;51.208;6.418;2022-11-14T00:19:48;8.20;94.40
36292;DHT22;22327;51.208;6.418;2022-11-14T00:22:13;8.10;94.50
36292;DHT22;22327;51.208;6.418;2022-11-14T00:24:39;8.10;94.60
36292;DHT22;22327;51.208;6.418;2022-11-14T00:27:04;8.10;94.90
36292;DHT22;22327;51.208;6.418;2022-11-14T00:29:30;8.10;95.00
36292;DHT22;22327;51.208;6.418;2022-11-14T00:31:55;8.10;95.20
36292;DHT22;22327;51.208;6.418;2022-11-14T00:34:21;8.00;95.10
36292;DHT22;22327;51.208;6.418;2022-11-14T00:36:46;8.00;95.30
36292;DHT22;22327;51.208;6.418;2022-11-14T00:39:13;8.00;95.60
36292;DHT22;22327;51.208;6.418;2022-11-14T00:41:40;8.10;95.80
36292;DHT22;22327;51.208;6.418;2022-11-14T00:44:06;8.10;96.00
36292;DHT22;22327;51.208;6.418;2022-11-14T00:46:32;8.20;96.20
36292;DHT22;22327;51.208;6.418;2022-11-14T00:48:58;8.20;96.30
36292;DHT22;22327;51.208;6.418;2022-11-14T00:51:23;8.30;96.60
36292;DHT22;22327;51.208;6.418;2022-11-14T00:53:48;8.30;96.50
36292;DHT22;22327;51.208;6.418;2022-11-14T00:56:14;8.40;96.40
36292;DHT22;22327;51.208;6.418;2022-11-14T00:58:40;8.40;96.40
36292;DHT22;22327;51.208;6.418;2022-11-14T01:01:05;8.50;96.40
36292;DHT22;22327;51.208;6.418;2022-11-14T01:03:31;8.50;96.30
36292;DHT22;22327;51.208;6.418;2022-11-14T01:05:56;8.60;96.20
36292;DHT22;22327;51.208;6.418;2022-11-14T01:08:22;8.60;96.10
36292;DHT22;22327;51.208;6.418;2022-11-14T01:10:49;8.60;96.20
36292;DHT22;22327;51.208;6.418;2022-11-14T01:13:17;8.60;96.20
36292;DHT22;22327;51.208;6.418;2022-11-14T01:15:45;8.60;96.20
36292;DHT22;22327;51.208;6.418;2022-11-14T01:18:13;8.60;96.20
36292;DHT22;22327;51.208;6.418;2022-11-14T01:20:41;8.60;96.20
36292;DHT22;22327;51.208;6.418;2022-11-14T01:23:08;8.60;96.10
36292;DHT22;22327;51.208;6.418;2022-11-14T01:25:35;8.60;96.50
36292;DHT22;22327;51.208;6.418;2022-11-14T01:28:01;8.70;96.00
36292;DHT22;22327;51.208;6.418;2022-11-14T01:30:29;8.70;95.90
36292;DHT22;22327;51.208;6.418;2022-11-14T01:32:55;8.60;95.90
36292;DHT22;22327;51.208;6.418;2022-11-14T01:35:20;8.70;95.90
36292;DHT22;22327;51.208;6.418;2022-11-14T01:37:46;8.60;95.90
36292;DHT22;22327;51.208;6.418;2022-11-14T01:40:11;8.70;95.90
36292;DHT22;22327;51.208;6.418;2022-11-14T01:42:37;8.70;95.80
36292;DHT22;22327;51.208;6.418;2022-11-14T01:48:21;8.70;95.60
36292;DHT22;22327;51.208;6.418;2022-11-14T01:51:13;8.70;95.70
36292;DHT22;22327;51.208;6.418;2022-11-14T01:53:39;8.70;95.50
36292;DHT22;22327;51.208;6.418;2022-11-14T01:56:06;8.80;95.40
36292;DHT22;22327;51.208;6.418;2022-11-14T01:58:34;8.80;95.30
36292;DHT22;22327;51.208;6.418;2022-11-14T02:01:01;8.80;95.20
36292;DHT22;22327;51.208;6.418;2022-11-14T02:03:27;8.80;95.10
36292;DHT22;22327;51.208;6.418;2022-11-14T02:05:53;8.80;95.10
36292;DHT22;22327;51.208;6.418;2022-11-14T02:08:19;8.80;94.90
36292;DHT22;22327;51.208;6.418;2022-11-14T02:10:46;8.80;94.80
36292;DHT22;22327;51.208;6.418;2022-11-14T02:13:11;8.70;94.90
36292;DHT22;22327;51.208;6.418;2022-11-14T02:15:37;8.70;94.90
36292;DHT22;22327;51.208;6.418;2022-11-14T02:18:03;8.70;94.90
36292;DHT22;22327;51.208;6.418;2022-11-14T02:20:33;8.60;94.90
36292;DHT22;22327;51.208;6.418;2022-11-14T02:22:59;8.70;94.80
36292;DHT22;22327;51.208;6.418;2022-11-14T02:25:25;8.60;94.80
36292;DHT22;22327;51.208;6.418;2022-11-14T02:27:50;8.60;94.80
36292;DHT22;22327;51.208;6.418;2022-11-14T02:30:18;8.60;94.80
36292;DHT22;22327;51.208;6.418;2022-11-14T02:32:44;8.50;94.60
36292;DHT22;22327;51.208;6.418;2022-11-14T02:35:10;8.60;94.40
36292;DHT22;22327;51.208;6.418;2022-11-14T02:37:36;8.60;94.20
36292;DHT22;22327;51.208;6.418;2022-11-14T02:40:02;8.70;93.90
36292;DHT22;22327;51.208;6.418;2022-11-14T02:42:27;8.80;93.70
36292;DHT22;22327;51.208;6.418;2022-11-14T02:44:53;8.90;93.50
36292;DHT22;22327;51.208;6.418;2022-11-14T02:47:18;8.90;93.40
36292;DHT22;22327;51.208;6.418;2022-11-14T02:49:44;9.00;93.20
36292;DHT22;22327;51.208;6.418;2022-11-14T02:52:09;9.00;92.90
36292;DHT22;22327;51.208;6.418;2022-11-14T02:54:35;8.90;92.80
36292;DHT22;22327;51.208;6.418;2022-11-14T02:57:01;9.00;92.80
36292;DHT22;22327;51.208;6.418;2022-11-14T02:59:26;9.00;92.70
36292;DHT22;22327;51.208;6.418;2022-11-14T03:01:52;9.00;92.40
36292;DHT22;22327;51.208;6.418;2022-11-14T03:04:17;9.00;92.30
36292;DHT22;22327;51.208;6.418;2022-11-14T03:06:43;9.00;92.10
36292;DHT22;22327;51.208;6.418;2022-11-14T03:09:08;9.00;92.00
36292;DHT22;22327;51.208;6.418;2022-11-14T03:11:34;9.10;91.80
36292;DHT22;22327;51.208;6.418;2022-11-14T03:13:59;9.10;91.70
36292;DHT22;22327;51.208;6.418;2022-11-14T03:16:25;9.10;91.50
36292;DHT22;22327;51.208;6.418;2022-11-14T03:18:50;9.10;91.50
36292;DHT22;22327;51.208;6.418;2022-11-14T03:21:21;9.20;91.30
36292;DHT22;22327;51.208;6.418;2022-11-14T03:23:47;9.20;91.10
36292;DHT22;22327;51.208;6.418;2022-11-14T03:26:13;9.20;91.00
36292;DHT22;22327;51.208;6.418;2022-11-14T03:28:40;9.20;90.90
36292;DHT22;22327;51.208;6.418;2022-11-14T03:31:07;9.20;90.80
36292;DHT22;22327;51.208;6.418;2022-11-14T03:33:33;9.20;90.80
36292;DHT22;22327;51.208;6.418;2022-11-14T03:35:58;9.20;90.80
36292;DHT22;22327;51.208;6.418;2022-11-14T03:38:24;9.20;90.80
36292;DHT22;22327;51.208;6.418;2022-11-14T03:40:50;9.20;90.80
36292;DHT22;22327;51.208;6.418;2022-11-14T03:43:17;9.30;90.80
36292;DHT22;22327;51.208;6.418;2022-11-14T03:45:43;9.30;90.80
36292;DHT22;22327;51.208;6.418;2022-11-14T03:48:08;9.30;90.70
36292;DHT22;22327;51.208;6.418;2022-11-14T03:50:34;9.30;90.70
36292;DHT22;22327;51.208;6.418;2022-11-14T03:52:59;9.30;90.80
36292;DHT22;22327;51.208;6.418;2022-11-14T03:55:25;9.40;90.70
36292;DHT22;22327;51.208;6.418;2022-11-14T03:57:51;9.40;90.60
36292;DHT22;22327;51.208;6.418;2022-11-14T04:00:16;9.40;90.50
36292;DHT22;22327;51.208;6.418;2022-11-14T04:02:42;9.40;90.50
36292;DHT22;22327;51.208;6.418;2022-11-14T04:05:08;9.40;90.30
36292;DHT22;22327;51.208;6.418;2022-11-14T04:07:33;9.40;90.40
36292;DHT22;22327;51.208;6.418;2022-11-14T04:09:59;9.40;90.30
36292;DHT22;22327;51.208;6.418;2022-11-14T04:12:25;9.40;90.40
36292;DHT22;22327;51.208;6.418;2022-11-14T04:14:50;9.40;90.40
36292;DHT22;22327;51.208;6.418;2022-11-14T04:17:16;9.40;90.40
36292;DHT22;22327;51.208;6.418;2022-11-14T04:19:41;9.40;90.30
36292;DHT22;22327;51.208;6.418;2022-11-14T04:22:07;9.40;90.40
36292;DHT22;22327;51.208;6.418;2022-11-14T04:24:32;9.40;90.50
36292;DHT22;22327;51.208;6.418;2022-11-14T04:26:58;9.40;90.50
36292;DHT22;22327;51.208;6.418;2022-11-14T04:29:23;9.40;90.60
36292;DHT22;22327;51.208;6.418;2022-11-14T04:31:49;9.30;90.70
36292;DHT22;22327;51.208;6.418;2022-11-14T04:34:14;9.30;90.80
36292;DHT22;22327;51.208;6.418;2022-11-14T04:36:40;9.30;91.00
36292;DHT22;22327;51.208;6.418;2022-11-14T04:39:05;9.30;91.00
36292;DHT22;22327;51.208;6.418;2022-11-14T04:41:31;9.30;91.20
36292;DHT22;22327;51.208;6.418;2022-11-14T04:43:56;9.30;91.20
36292;DHT22;22327;51.208;6.418;2022-11-14T04:46:22;9.30;91.30
36292;DHT22;22327;51.208;6.418;2022-11-14T04:48:47;9.30;91.40
36292;DHT22;22327;51.208;6.418;2022-11-14T04:51:13;9.30;91.50
36292;DHT22;22327;51.208;6.418;2022-11-14T04:53:38;9.20;91.60
36292;DHT22;22327;51.208;6.418;2022-11-14T04:56:04;9.20;91.70
36292;DHT22;22327;51.208;6.418;2022-11-14T04:58:30;9.20;91.80
36292;DHT22;22327;51.208;6.418;2022-11-14T05:00:55;9.20;91.80
36292;DHT22;22327;51.208;6.418;2022-11-14T05:03:22;9.20;91.80
36292;DHT22;22327;51.208;6.418;2022-11-14T05:05:48;9.20;91.90
36292;DHT22;22327;51.208;6.418;2022-11-14T05:08:14;9.20;91.90
36292;DHT22;22327;51.208;6.418;2022-11-14T05:10:43;9.10;91.90
36292;DHT22;22327;51.208;6.418;2022-11-14T05:13:09;9.10;92.00
36292;DHT22;22327;51.208;6.418;2022-11-14T05:15:35;9.10;92.20
36292;DHT22;22327;51.208;6.418;2022-11-14T05:18:01;9.10;92.20
36292;DHT22;22327;51.208;6.418;2022-11-14T05:20:26;9.10;92.30
36292;DHT22;22327;51.208;6.418;2022-11-14T05:22:53;9.00;92.30
36292;DHT22;22327;51.208;6.418;2022-11-14T05:25:19;9.00;92.30
36292;DHT22;22327;51.208;6.418;2022-11-14T05:27:46;9.00;92.30
36292;DHT22;22327;51.208;6.418;2022-11-14T05:30:11;9.00;92.40
36292;DHT22;22327;51.208;6.418;2022-11-14T05:32:37;9.00;92.50
36292;DHT22;22327;51.208;6.418;2022-11-14T05:35:03;9.00;92.50
36292;DHT22;22327;51.208;6.418;2022-11-14T05:37:28;9.00;92.60
36292;DHT22;22327;51.208;6.418;2022-11-14T05:39:54;9.00;92.70
36292;DHT22;22327;51.208;6.418;2022-11-14T05:42:19;9.00;92.70
36292;DHT22;22327;51.208;6.418;2022-11-14T05:44:45;9.00;92.70
36292;DHT22;22327;51.208;6.418;2022-11-14T05:47:10;9.00;92.80
36292;DHT22;22327;51.208;6.418;2022-11-14T05:49:36;9.00;92.90
36292;DHT22;22327;51.208;6.418;2022-11-14T05:52:02;9.00;92.90
36292;DHT22;22327;51.208;6.418;2022-11-14T05:54:27;9.00;92.90
36292;DHT22;22327;51.208;6.418;2022-11-14T05:56:53;9.00;93.00
36292;DHT22;22327;51.208;6.418;2022-11-14T05:59:18;9.00;93.00
36292;DHT22;22327;51.208;6.418;2022-11-14T06:01:44;9.00;93.00
36292;DHT22;22327;51.208;6.418;2022-11-14T06:04:11;9.00;93.10
36292;DHT22;22327;51.208;6.418;2022-11-14T06:06:37;9.00;93.10
36292;DHT22;22327;51.208;6.418;2022-11-14T06:09:03;8.90;93.20
36292;DHT22;22327;51.208;6.418;2022-11-14T06:11:28;8.90;93.30
36292;DHT22;22327;51.208;6.418;2022-11-14T06:13:54;8.90;93.30
36292;DHT22;22327;51.208;6.418;2022-11-14T06:16:19;9.00;93.40
36292;DHT22;22327;51.208;6.418;2022-11-14T06:18:45;9.00;93.40
36292;DHT22;22327;51.208;6.418;2022-11-14T06:21:14;8.90;93.40
36292;DHT22;22327;51.208;6.418;2022-11-14T06:23:40;9.00;93.40
36292;DHT22;22327;51.208;6.418;2022-11-14T06:28:49;9.00;93.50
36292;DHT22;22327;51.208;6.418;2022-11-14T06:31:16;8.90;93.50
36292;DHT22;22327;51.208;6.418;2022-11-14T06:33:42;9.00;93.50
36292;DHT22;22327;51.208;6.418;2022-11-14T06:36:08;8.90;93.50
36292;DHT22;22327;51.208;6.418;2022-11-14T06:38:35;8.90;93.50
36292;DHT22;22327;51.208;6.418;2022-11-14T06:41:06;8.90;93.50
36292;DHT22;22327;51.208;6.418;2022-11-14T06:43:37;8.90;93.60
36292;DHT22;22327;51.208;6.418;2022-11-14T06:46:03;8.80;93.60
36292;DHT22;22327;51.208;6.418;2022-11-14T06:48:29;8.80;93.70
36292;DHT22;22327;51.208;6.418;2022-11-14T06:50:56;8.80;93.80
36292;DHT22;22327;51.208;6.418;2022-11-14T06:53:23;8.80;93.80
36292;DHT22;22327;51.208;6.418;2022-11-14T06:55:59;8.70;93.80
36292;DHT22;22327;51.208;6.418;2022-11-14T06:58:33;8.70;93.90
36292;DHT22;22327;51.208;6.418;2022-11-14T07:01:06;8.70;94.00
36292;DHT22;22327;51.208;6.418;2022-11-14T07:03:33;8.70;94.00
36292;DHT22;22327;51.208;6.418;2022-11-14T07:06:00;8.70;94.10
36292;DHT22;22327;51.208;6.418;2022-11-14T07:08:25;8.70;94.10
36292;DHT22;22327;51.208;6.418;2022-11-14T07:10:51;8.70;94.10
36292;DHT22;22327;51.208;6.418;2022-11-14T07:13:17;8.80;94.20
36292;DHT22;22327;51.208;6.418;2022-11-14T07:15:50;8.80;94.30
36292;DHT22;22327;51.208;6.418;2022-11-14T07:18:16;8.90;94.10
36292;DHT22;22327;51.208;6.418;2022-11-14T07:20:41;9.00;94.00
36292;DHT22;22327;51.208;6.418;2022-11-14T07:23:07;9.10;93.70
36292;DHT22;22327;51.208;6.418;2022-11-14T07:25:32;9.20;93.70
36292;DHT22;22327;51.208;6.418;2022-11-14T07:27:58;9.30;93.50
36292;DHT22;22327;51.208;6.418;2022-11-14T07:30:23;9.30;93.40
36292;DHT22;22327;51.208;6.418;2022-11-14T07:32:58;9.50;93.30
36292;DHT22;22327;51.208;6.418;2022-11-14T07:35:24;9.60;93.20
36292;DHT22;22327;51.208;6.418;2022-11-14T07:37:50;9.60;93.00
36292;DHT22;22327;51.208;6.418;2022-11-14T07:40:16;9.60;92.90
36292;DHT22;22327;51.208;6.418;2022-11-14T07:42:42;9.60;93.10
36292;DHT22;22327;51.208;6.418;2022-11-14T07:45:08;9.60;93.40
36292;DHT22;22327;51.208;6.418;2022-11-14T07:47:34;9.50;93.50
36292;DHT22;22327;51.208;6.418;2022-11-14T07:49:59;9.50;93.80
36292;DHT22;22327;51.208;6.418;2022-11-14T07:52:25;9.50;93.80
36292;DHT22;22327;51.208;6.418;2022-11-14T07:54:50;9.60;94.00
36292;DHT22;22327;51.208;6.418;2022-11-14T07:57:16;9.60;94.00
36292;DHT22;22327;51.208;6.418;2022-11-14T07:59:42;9.60;94.10
36292;DHT22;22327;51.208;6.418;2022-11-14T08:02:12;9.60;94.20
36292;DHT22;22327;51.208;6.418;2022-11-14T08:04:39;9.60;94.30
36292;DHT22;22327;51.208;6.418;2022-11-14T08:07:05;9.70;94.50
36292;DHT22;22327;51.208;6.418;2022-11-14T08:09:30;9.70;94.60
36292;DHT22;22327;51.208;6.418;2022-11-14T08:11:56;9.80;94.70
36292;DHT22;22327;51.208;6.418;2022-11-14T08:14:21;9.90;94.60
36292;DHT22;22327;51.208;6.418;2022-11-14T08:16:47;9.90;94.50
36292;DHT22;22327;51.208;6.418;2022-11-14T08:19:12;9.90;94.50
36292;DHT22;22327;51.208;6.418;2022-11-14T08:21:38;9.90;94.60
36292;DHT22;22327;51.208;6.418;2022-11-14T08:24:03;9.90;94.60
36292;DHT22;22327;51.208;6.418;2022-11-14T08:26:29;10.00;94.70
36292;DHT22;22327;51.208;6.418;2022-11-14T08:28:55;10.10;94.80
36292;DHT22;22327;51.208;6.418;2022-11-14T08:31:21;10.10;94.80
36292;DHT22;22327;51.208;6.418;2022-11-14T08:33:47;10.10;94.70
36292;DHT22;22327;51.208;6.418;2022-11-14T08:36:14;10.20;94.50
36292;DHT22;22327;51.208;6.418;2022-11-14T08:38:40;10.20;94.50
36292;DHT22;22327;51.208;6.418;2022-11-14T08:41:05;10.30;94.70
36292;DHT22;22327;51.208;6.418;2022-11-14T08:43:31;10.30;94.40
36292;DHT22;22327;51.208;6.418;2022-11-14T08:45:58;10.30;94.50
36292;DHT22;22327;51.208;6.418;2022-11-14T08:48:24;10.40;94.70
36292;DHT22;22327;51.208;6.418;2022-11-14T08:50:49;10.50;94.40
36292;DHT22;22327;51.208;6.418;2022-11-14T08:53:15;10.50;94.60
36292;DHT22;22327;51.208;6.418;2022-11-14T08:55:47;10.50;94.50
36292;DHT22;22327;51.208;6.418;2022-11-14T08:58:13;10.60;94.50
36292;DHT22;22327;51.208;6.418;2022-11-14T09:00:38;10.70;94.30
36292;DHT22;22327;51.208;6.418;2022-11-14T09:03:08;10.60;94.30
36292;DHT22;22327;51.208;6.418;2022-11-14T09:05:34;10.60;94.30
36292;DHT22;22327;51.208;6.418;2022-11-14T09:08:00;10.60;94.80
36292;DHT22;22327;51.208;6.418;2022-11-14T09:10:25;10.70;94.30
36292;DHT22;22327;51.208;6.418;2022-11-14T09:12:55;10.70;94.50
36292;DHT22;22327;51.208;6.418;2022-11-14T09:15:21;10.70;94.30
36292;DHT22;22327;51.208;6.418;2022-11-14T09:17:46;10.70;94.20
36292;DHT22;22327;51.208;6.418;2022-11-14T09:20:13;10.70;94.30
36292;DHT22;22327;51.208;6.418;2022-11-14T09:22:38;10.80;94.40
36292;DHT22;22327;51.208;6.418;2022-11-14T09:25:04;10.80;94.30
36292;DHT22;22327;51.208;6.418;2022-11-14T09:27:30;10.80;94.20
36292;DHT22;22327;51.208;6.418;2022-11-14T09:29:55;10.80;94.40
36292;DHT22;22327;51.208;6.418;2022-11-14T09:32:21;10.90;94.30
36292;DHT22;22327;51.208;6.418;2022-11-14T09:34:46;10.90;94.50
36292;DHT22;22327;51.208;6.418;2022-11-14T09:37:12;10.90;94.50
36292;DHT22;22327;51.208;6.418;2022-11-14T09:39:38;11.00;94.10
36292;DHT22;22327;51.208;6.418;2022-11-14T09:45:00;10.90;94.00
36292;DHT22;22327;51.208;6.418;2022-11-14T09:47:47;10.90;94.30
36292;DHT22;22327;51.208;6.418;2022-11-14T09:50:21;10.90;94.10
36292;DHT22;22327;51.208;6.418;2022-11-14T09:52:55;10.90;94.20
36292;DHT22;22327;51.208;6.418;2022-11-14T09:55:28;11.00;94.10
36292;DHT22;22327;51.208;6.418;2022-11-14T09:57:54;11.00;94.00
36292;DHT22;22327;51.208;6.418;2022-11-14T10:00:22;10.90;94.20
36292;DHT22;22327;51.208;6.418;2022-11-14T10:11:00;11.10;94.10
36292;DHT22;22327;51.208;6.418;2022-11-14T10:13:54;11.10;94.10
36292;DHT22;22327;51.208;6.418;2022-11-14T10:19:12;11.10;94.10
36292;DHT22;22327;51.208;6.418;2022-11-14T10:24:30;11.10;94.10
36292;DHT22;22327;51.208;6.418;2022-11-14T10:27:03;11.10;94.00
36292;DHT22;22327;51.208;6.418;2022-11-14T10:35:54;11.30;93.70
36292;DHT22;22327;51.208;6.418;2022-11-14T10:38:31;11.40;93.80
36292;DHT22;22327;51.208;6.418;2022-11-14T10:41:00;11.40;93.80
36292;DHT22;22327;51.208;6.418;2022-11-14T10:43:40;11.50;93.80
36292;DHT22;22327;51.208;6.418;2022-11-14T10:46:22;11.60;93.40
36292;DHT22;22327;51.208;6.418;2022-11-14T10:48:49;11.60;93.40
36292;DHT22;22327;51.208;6.418;2022-11-14T10:51:39;11.70;93.50
36292;DHT22;22327;51.208;6.418;2022-11-14T10:54:14;11.80;93.30
36292;DHT22;22327;51.208;6.418;2022-11-14T10:56:50;11.90;93.20
36292;DHT22;22327;51.208;6.418;2022-11-14T10:59:16;11.90;92.80
36292;DHT22;22327;51.208;6.418;2022-11-14T11:06:48;11.90;92.40
36292;DHT22;22327;51.208;6.418;2022-11-14T11:09:16;12.00;92.30
36292;DHT22;22327;51.208;6.418;2022-11-14T11:12:02;12.00;92.00
36292;DHT22;22327;51.208;6.418;2022-11-14T11:14:28;12.10;92.10
36292;DHT22;22327;51.208;6.418;2022-11-14T11:17:26;12.20;92.10
36292;DHT22;22327;51.208;6.418;2022-11-14T11:19:52;12.40;91.40
36292;DHT22;22327;51.208;6.418;2022-11-14T11:22:36;12.40;91.40
36292;DHT22;22327;51.208;6.418;2022-11-14T11:25:22;12.40;91.10
36292;DHT22;22327;51.208;6.418;2022-11-14T11:28:23;12.40;91.50
36292;DHT22;22327;51.208;6.418;2022-11-14T11:30:55;12.50;91.20
36292;DHT22;22327;51.208;6.418;2022-11-14T11:33:25;12.50;91.40
36292;DHT22;22327;51.208;6.418;2022-11-14T11:35:54;12.50;91.10
36292;DHT22;22327;51.208;6.418;2022-11-14T11:38:21;12.40;91.20
36292;DHT22;22327;51.208;6.418;2022-11-14T11:40:51;12.40;91.40
36292;DHT22;22327;51.208;6.418;2022-11-14T11:43:35;12.40;91.30
36292;DHT22;22327;51.208;6.418;2022-11-14T11:46:08;12.40;91.40
36292;DHT22;22327;51.208;6.418;2022-11-14T11:48:39;12.40;91.40
36292;DHT22;22327;51.208;6.418;2022-11-14T11:51:09;12.40;91.40
36292;DHT22;22327;51.208;6.418;2022-11-14T11:53:42;12.50;91.40
36292;DHT22;22327;51.208;6.418;2022-11-14T11:56:16;12.60;91.40
36292;DHT22;22327;51.208;6.418;2022-11-14T11:58:51;12.60;91.30
36292;DHT22;22327;51.208;6.418;2022-11-14T12:01:19;12.80;91.30
36292;DHT22;22327;51.208;6.418;2022-11-14T12:03:54;12.80;91.00
36292;DHT22;22327;51.208;6.418;2022-11-14T12:06:21;13.00;91.10
36292;DHT22;22327;51.208;6.418;2022-11-14T12:11:25;13.10;90.70
36292;DHT22;22327;51.208;6.418;2022-11-14T12:17:21;13.30;90.60
36292;DHT22;22327;51.208;6.418;2022-11-14T12:20:06;13.30;90.30
36292;DHT22;22327;51.208;6.418;2022-11-14T12:22:54;13.10;90.40
36292;DHT22;22327;51.208;6.418;2022-11-14T12:28:33;12.90;90.80
36292;DHT22;22327;51.208;6.418;2022-11-14T12:31:02;12.90;91.20
36292;DHT22;22327;51.208;6.418;2022-11-14T12:33:32;12.90;91.30
36292;DHT22;22327;51.208;6.418;2022-11-14T12:36:00;12.90;91.40
36292;DHT22;22327;51.208;6.418;2022-11-14T12:38:39;13.00;91.50
36292;DHT22;22327;51.208;6.418;2022-11-14T12:41:08;13.10;91.40
36292;DHT22;22327;51.208;6.418;2022-11-14T12:43:38;13.10;91.40
36292;DHT22;22327;51.208;6.418;2022-11-14T12:46:11;13.10;91.30
36292;DHT22;22327;51.208;6.418;2022-11-14T12:48:44;13.10;91.20
36292;DHT22;22327;51.208;6.418;2022-11-14T12:53:55;13.10;91.10
36292;DHT22;22327;51.208;6.418;2022-11-14T13:07:40;13.80;90.50
36292;DHT22;22327;51.208;6.418;2022-11-14T13:10:15;13.90;90.10
36292;DHT22;22327;51.208;6.418;2022-11-14T13:12:45;13.80;90.00
36292;DHT22;22327;51.208;6.418;2022-11-14T13:15:51;13.80;90.10
36292;DHT22;22327;51.208;6.418;2022-11-14T13:18:35;13.80;90.20
36292;DHT22;22327;51.208;6.418;2022-11-14T13:21:27;13.70;90.20
36292;DHT22;22327;51.208;6.418;2022-11-14T13:24:20;13.60;90.20
36292;DHT22;22327;51.208;6.418;2022-11-14T13:26:49;13.40;90.50
36292;DHT22;22327;51.208;6.418;2022-11-14T13:32:09;13.30;90.70
36292;DHT22;22327;51.208;6.418;2022-11-14T13:35:02;13.20;90.90
36292;DHT22;22327;51.208;6.418;2022-11-14T13:43:15;13.20;91.10
36292;DHT22;22327;51.208;6.418;2022-11-14T13:45:59;13.30;91.20
36292;DHT22;22327;51.208;6.418;2022-11-14T13:48:57;13.30;91.00
36292;DHT22;22327;51.208;6.418;2022-11-14T13:51:26;13.20;91.20
36292;DHT22;22327;51.208;6.418;2022-11-14T13:53:52;13.10;91.60
36292;DHT22;22327;51.208;6.418;2022-11-14T13:56:34;13.10;91.60
36292;DHT22;22327;51.208;6.418;2022-11-14T14:04:44;12.70;92.40
36292;DHT22;22327;51.208;6.418;2022-11-14T14:07:23;12.60;92.60
36292;DHT22;22327;51.208;6.418;2022-11-14T14:10:40;12.60;92.80
36292;DHT22;22327;51.208;6.418;2022-11-14T14:16:12;12.60;93.00
36292;DHT22;22327;51.208;6.418;2022-11-14T14:19:06;12.60;92.70
36292;DHT22;22327;51.208;6.418;2022-11-14T14:24:56;12.50;92.90
36292;DHT22;22327;51.208;6.418;2022-11-14T14:30:14;12.50;93.10
36292;DHT22;22327;51.208;6.418;2022-11-14T14:32:40;12.50;93.00
36292;DHT22;22327;51.208;6.418;2022-11-14T14:35:24;12.50;93.20
36292;DHT22;22327;51.208;6.418;2022-11-14T14:37:53;12.50;93.10
36292;DHT22;22327;51.208;6.418;2022-11-14T14:42:50;12.60;93.10
36292;DHT22;22327;51.208;6.418;2022-11-14T14:45:18;12.50;92.90
36292;DHT22;22327;51.208;6.418;2022-11-14T14:47:49;12.50;93.10
36292;DHT22;22327;51.208;6.418;2022-11-14T14:50:20;12.50;93.40
36292;DHT22;22327;51.208;6.418;2022-11-14T14:52:53;12.50;93.10
36292;DHT22;22327;51.208;6.418;2022-11-14T14:55:25;12.50;93.20
36292;DHT22;22327;51.208;6.418;2022-11-14T14:57:51;12.50;93.10
36292;DHT22;22327;51.208;6.418;2022-11-14T15:00:21;12.60;93.10
36292;DHT22;22327;51.208;6.418;2022-11-14T15:02:48;12.60;93.00
36292;DHT22;22327;51.208;6.418;2022-11-14T15:05:24;12.60;92.90
36292;DHT22;22327;51.208;6.418;2022-11-14T15:07:52;12.60;93.00
36292;DHT22;22327;51.208;6.418;2022-11-14T15:10:21;12.50;93.00
36292;DHT22;22327;51.208;6.418;2022-11-14T15:12:47;12.50;93.10
36292;DHT22;22327;51.208;6.418;2022-11-14T15:15:15;12.50;93.20
36292;DHT22;22327;51.208;6.418;2022-11-14T15:17:41;12.60;93.10
36292;DHT22;22327;51.208;6.418;2022-11-14T15:20:29;12.60;93.00
36292;DHT22;22327;51.208;6.418;2022-11-14T15:25:36;12.70;92.80
36292;DHT22;22327;51.208;6.418;2022-11-14T15:28:02;12.60;92.90
36292;DHT22;22327;51.208;6.418;2022-11-14T15:30:32;12.50;93.40
36292;DHT22;22327;51.208;6.418;2022-11-14T15:33:03;12.50;93.10
36292;DHT22;22327;51.208;6.418;2022-11-14T15:35:39;12.60;93.10
36292;DHT22;22327;51.208;6.418;2022-11-14T15:38:18;12.60;93.00
36292;DHT22;22327;51.208;6.418;2022-11-14T15:41:19;12.60;93.00
36292;DHT22;22327;51.208;6.418;2022-11-14T15:43:50;12.60;92.90
36292;DHT22;22327;51.208;6.418;2022-11-14T15:46:41;12.60;93.10
36292;DHT22;22327;51.208;6.418;2022-11-14T15:51:44;12.60;93.10
36292;DHT22;22327;51.208;6.418;2022-11-14T15:54:28;12.60;93.00
36292;DHT22;22327;51.208;6.418;2022-11-14T15:56:56;12.60;93.10
36292;DHT22;22327;51.208;6.418;2022-11-14T15:59:23;12.60;93.10
36292;DHT22;22327;51.208;6.418;2022-11-14T16:01:58;12.70;93.00
36292;DHT22;22327;51.208;6.418;2022-11-14T16:04:28;12.70;92.90
36292;DHT22;22327;51.208;6.418;2022-11-14T16:06:54;12.70;92.80
36292;DHT22;22327;51.208;6.418;2022-11-14T16:09:20;12.60;93.00
36292;DHT22;22327;51.208;6.418;2022-11-14T16:11:46;12.60;93.10
36292;DHT22;22327;51.208;6.418;2022-11-14T16:14:12;12.60;93.10
36292;DHT22;22327;51.208;6.418;2022-11-14T16:16:38;12.70;93.00
36292;DHT22;22327;51.208;6.418;2022-11-14T16:19:04;12.70;93.00
36292;DHT22;22327;51.208;6.418;2022-11-14T16:21:30;12.70;93.00
36292;DHT22;22327;51.208;6.418;2022-11-14T16:23:55;12.80;93.00
36292;DHT22;22327;51.208;6.418;2022-11-14T16:26:22;12.80;92.90
36292;DHT22;22327;51.208;6.418;2022-11-14T16:28:47;12.80;92.80
36292;DHT22;22327;51.208;6.418;2022-11-14T16:31:13;12.80;92.80
36292;DHT22;22327;51.208;6.418;2022-11-14T16:33:39;12.80;92.90
36292;DHT22;22327;51.208;6.418;2022-11-14T16:36:05;12.80;92.80
36292;DHT22;22327;51.208;6.418;2022-11-14T16:38:31;12.90;92.80
36292;DHT22;22327;51.208;6.418;2022-11-14T16:40:56;12.80;92.70
36292;DHT22;22327;51.208;6.418;2022-11-14T16:43:24;12.80;92.90
36292;DHT22;22327;51.208;6.418;2022-11-14T16:45:49;12.70;92.90
36292;DHT22;22327;51.208;6.418;2022-11-14T16:48:15;12.60;93.00
36292;DHT22;22327;51.208;6.418;2022-11-14T16:50:41;12.60;93.10
36292;DHT22;22327;51.208;6.418;2022-11-14T16:53:06;12.60;93.30
36292;DHT22;22327;51.208;6.418;2022-11-14T16:55:32;12.70;93.30
36292;DHT22;22327;51.208;6.418;2022-11-14T16:57:57;12.70;93.20
36292;DHT22;22327;51.208;6.418;2022-11-14T17:00:23;12.80;93.10
36292;DHT22;22327;51.208;6.418;2022-11-14T17:02:48;12.80;93.00
36292;DHT22;22327;51.208;6.418;2022-11-14T17:05:14;12.80;93.00
36292;DHT22;22327;51.208;6.418;2022-11-14T17:07:39;12.70;92.90
36292;DHT22;22327;51.208;6.418;2022-11-14T17:10:06;12.70;93.00
36292;DHT22;22327;51.208;6.418;2022-11-14T17:12:32;12.70;93.10
36292;DHT22;22327;51.208;6.418;2022-11-14T17:14:58;12.70;93.10
36292;DHT22;22327;51.208;6.418;2022-11-14T17:17:24;12.70;93.00